Time;durP1;ratioP1;P1;durP2;ratioP2;P2;SDS_P1;SDS_P2;PMS_P1;PMS_P2;Temp;Humidity;BMP_temperature;BMP_pressure;BME280_temperature;BME280_humidity;BME280_pressure;Samples;Min_cycle;Max_cycle;Signal;HPM_P1;HPM_P2
2022/08/15 00:00:52;;;;;;;5.25;4.75;;;;;;;28.13;44.12;100322.41;5025571;28;20427;-60
2022/08/15 00:03:17;;;;;;;5.65;5.15;;;;;;;28.13;44.26;100319.66;5025501;28;20024;-60
2022/08/15 00:05:42;;;;;;;5.40;4.90;;;;;;;28.12;43.97;100318.84;5025160;28;20120;-60
2022/08/15 00:08:08;;;;;;;5.25;4.75;;;;;;;28.12;43.95;100313.38;5025687;28;20041;-60
2022/08/15 00:10:33;;;;;;;5.65;5.15;;;;;;;28.11;43.90;100317.16;5032908;28;20053;-59
2022/08/15 00:13:00;;;;;;;6.05;5.45;;;;;;;28.08;43.98;100306.72;5044854;28;20108;-60
2022/08/15 00:15:26;;;;;;;5.43;4.93;;;;;;;28.10;43.92;100304.56;5045329;28;20025;-60
2022/08/15 00:17:51;;;;;;;5.20;4.63;;;;;;;28.09;43.70;100311.13;5045052;28;20035;-59
2022/08/15 00:20:17;;;;;;;5.18;4.68;;;;;;;28.08;43.91;100301.25;5044778;28;20029;-59
2022/08/15 00:22:51;;;;;;;5.78;5.18;;;;;;;28.08;44.20;100305.91;5045212;28;20648;-59
2022/08/15 00:25:17;;;;;;;5.72;5.10;;;;;;;28.06;44.20;100300.66;5027389;28;20629;-59
2022/08/15 00:27:42;;;;;;;5.43;4.93;;;;;;;28.04;44.22;100302.81;5044938;28;20029;-61
2022/08/15 00:30:10;;;;;;;5.55;5.05;;;;;;;28.07;44.21;100306.97;5044939;28;20040;-60
2022/08/15 00:32:36;;;;;;;6.37;5.20;;;;;;;28.05;44.10;100306.38;5045071;28;20021;-59
2022/08/15 00:35:35;;;;;;;5.13;4.40;;;;;;;28.04;43.89;100300.09;5044234;28;20029;-59
2022/08/15 00:37:52;;;;;;;6.15;4.97;;;;;;;28.04;43.95;100302.00;5044730;28;20112;-60
2022/08/15 00:40:18;;;;;;;4.85;4.38;;;;;;;28.03;44.14;100303.06;5044796;28;20026;-60
2022/08/15 00:42:43;;;;;;;5.10;4.60;;;;;;;28.03;44.13;100294.84;5044513;28;20060;-60
2022/08/15 00:45:09;;;;;;;5.43;4.93;;;;;;;28.00;43.84;100288.00;5044606;28;20037;-60
2022/08/15 00:47:34;;;;;;;5.10;4.70;;;;;;;28.02;44.17;100285.81;5026986;28;20455;-59
2022/08/15 00:50:00;;;;;;;5.20;4.70;;;;;;;28.01;44.14;100286.91;5044389;28;20025;-60
2022/08/15 00:52:27;;;;;;;5.95;5.35;;;;;;;28.01;43.94;100277.88;5046766;28;20046;-60
2022/08/15 00:54:56;;;;;;;5.47;4.97;;;;;;;28.00;43.78;100282.53;5030546;28;20478;-59
2022/08/15 00:57:25;;;;;;;;;;;;;;;27.99;44.15;100283.56;5031292;28;20025;-60
2022/08/15 00:59:53;;;;;;;4.88;4.38;;;;;;;27.98;44.28;100276.47;5030450;28;19912;-59
2022/08/15 01:02:28;;;;;;;5.15;4.63;;;;;;;27.97;44.25;100280.28;5039760;28;20039;-59
2022/08/15 01:04:53;;;;;;;6.07;5.47;;;;;;;27.90;44.09;100260.44;5035692;28;20029;-60
2022/08/15 01:07:20;;;;;;;5.47;4.85;;;;;;;27.95;44.22;100276.97;5042260;28;20033;-60
2022/08/15 01:09:45;;;;;;;5.50;4.88;;;;;;;27.94;44.07;100271.72;5048131;28;20040;-60
2022/08/15 01:12:15;;;;;;;5.28;4.57;;;;;;;27.92;43.60;100271.97;5010551;28;20464;-60
2022/08/15 01:14:44;;;;;;;5.70;4.90;;;;;;;27.92;44.12;100271.97;5010811;28;20018;-60
2022/08/15 01:17:09;;;;;;;5.22;4.72;;;;;;;27.94;43.70;100274.47;5028488;28;20022;-58
2022/08/15 01:19:55;;;;;;;5.75;4.90;;;;;;;27.91;43.75;100270.34;5037033;28;20120;-59
2022/08/15 01:22:32;;;;;;;7.20;5.15;;;;;;;27.92;43.69;100273.88;5030535;28;20485;-60
2022/08/15 01:25:07;;;;;;;5.68;5.07;;;;;;;27.91;43.89;100267.59;5030404;28;20037;-61
2022/08/15 01:27:38;;;;;;;5.82;5.05;;;;;;;27.89;43.50;100267.81;5047980;28;20036;-59
2022/08/15 01:30:06;;;;;;;6.15;5.55;;;;;;;27.90;43.48;100274.13;5047978;28;20021;-59
2022/08/15 01:32:32;;;;;;;5.73;5.13;;;;;;;27.85;43.51;100263.09;5047664;28;20489;-59
2022/08/15 01:35:00;;;;;;;7.15;5.00;;;;;;;27.88;43.51;100271.63;5047347;28;20275;-59
2022/08/15 01:37:25;;;;;;;5.72;5.18;;;;;;;27.88;43.48;100274.38;5032140;28;20025;-60
2022/08/15 01:39:55;;;;;;;4.97;4.57;;;;;;;27.86;43.54;100270.22;5010083;28;20080;-59
2022/08/15 01:42:53;;;;;;;5.88;5.38;;;;;;;27.87;43.45;100267.25;5027790;28;20025;-60
2022/08/15 01:45:21;;;;;;;7.53;4.90;;;;;;;27.85;43.82;100257.63;4973208;28;20077;-59
2022/08/15 01:48:07;;;;;;;4.88;4.47;;;;;;;27.85;43.49;100268.56;5027732;28;20034;-59
2022/08/15 01:50:40;;;;;;;5.72;5.22;;;;;;;27.85;43.71;100261.19;5009757;28;20466;-59
2022/08/15 01:53:12;;;;;;;5.85;5.10;;;;;;;27.85;43.75;100263.09;5027470;28;20070;-59
2022/08/15 01:56:00;;;;;;;5.13;4.65;;;;;;;27.80;43.58;100255.63;5027518;28;20057;-60
2022/08/15 01:58:26;;;;;;;6.00;5.00;;;;;;;27.74;43.71;100248.44;5010447;28;20030;-60
2022/08/15 02:01:13;;;;;;;5.65;5.05;;;;;;;27.82;43.99;100258.94;5027496;28;20483;-60
2022/08/15 02:03:40;;;;;;;6.13;5.53;;;;;;;27.82;43.76;100260.84;5026017;28;20114;-60
2022/08/15 02:06:10;;;;;;;5.30;4.78;;;;;;;27.82;43.99;100260.84;5009562;28;20334;-60
2022/08/15 02:08:37;;;;;;;5.90;5.30;;;;;;;27.81;43.46;100257.28;5027403;28;20026;-59
2022/08/15 02:11:09;;;;;;;6.55;4.88;;;;;;;27.80;43.63;100263.81;5038700;28;20041;-60
2022/08/15 02:13:34;;;;;;;6.00;5.13;;;;;;;27.79;43.79;100250.44;5046607;28;20064;-60
2022/08/15 02:16:01;;;;;;;5.18;4.68;;;;;;;27.78;43.65;100251.47;5047128;28;20025;-60
2022/08/15 02:18:27;;;;;;;5.30;4.80;;;;;;;27.80;43.63;100257.53;5047086;28;20060;-57
2022/08/15 02:20:52;;;;;;;5.80;5.22;;;;;;;27.79;43.75;100256.72;5046245;28;20025;-59
2022/08/15 02:23:18;;;;;;;5.65;5.07;;;;;;;27.79;43.76;100253.16;5046844;28;20060;-58
2022/08/15 02:25:44;;;;;;;6.95;5.35;;;;;;;27.79;43.85;100261.34;5028925;28;20029;-59
2022/08/15 02:28:09;;;;;;;5.55;5.05;;;;;;;27.77;43.96;100258.03;5046693;28;20120;-59
2022/08/15 02:30:34;;;;;;;5.28;4.78;;;;;;;27.77;43.76;100247.91;5046883;28;20025;-59
2022/08/15 02:33:01;;;;;;;6.03;4.90;;;;;;;27.77;44.01;100244.34;5046332;28;20093;-59
2022/08/15 02:35:27;;;;;;;5.57;5.07;;;;;;;27.76;43.79;100242.72;5028588;28;20025;-59
2022/08/15 02:37:52;;;;;;;5.97;5.22;;;;;;;27.76;43.68;100245.44;5046593;28;20031;-59
2022/08/15 02:40:19;;;;;;;5.53;5.03;;;;;;;27.76;43.95;100237.25;5046443;28;20536;-59
2022/08/15 02:42:46;;;;;;;6.03;5.43;;;;;;;27.76;43.65;100248.16;5046251;28;20037;-59
2022/08/15 02:45:12;;;;;;;6.13;5.53;;;;;;;27.75;43.72;100238.31;5046226;28;20022;-59
2022/08/15 02:47:38;;;;;;;5.80;5.18;;;;;;;27.74;43.79;100239.38;5046499;28;20109;-59
2022/08/15 02:50:07;;;;;;;6.05;5.45;;;;;;;27.74;44.02;100236.66;5045990;28;20021;-60
2022/08/15 02:52:34;;;;;;;6.20;4.88;;;;;;;27.74;43.57;100236.66;5028478;28;20136;-60
2022/08/15 02:55:00;;;;;;;6.15;5.53;;;;;;;27.73;44.01;100235.00;5028330;28;20037;-60
2022/08/15 02:57:27;;;;;;;5.93;5.43;;;;;;;27.73;43.70;100230.34;5046435;28;20044;-61
2022/08/15 02:59:53;;;;;;;5.85;5.25;;;;;;;27.73;43.80;100235.81;5046280;28;20033;-60
2022/08/15 03:02:18;;;;;;;5.88;5.28;;;;;;;27.71;44.22;100229.75;5046326;28;20382;-59
2022/08/15 03:04:43;;;;;;;5.43;4.93;;;;;;;27.69;43.81;100217.41;5045633;28;20045;-60
2022/08/15 03:07:09;;;;;;;5.93;5.30;;;;;;;27.71;43.81;100231.66;5046052;28;20025;-58
2022/08/15 03:09:34;;;;;;;6.13;5.53;;;;;;;27.71;44.20;100218.00;5045980;28;20025;-60
2022/08/15 03:11:59;;;;;;;5.97;5.38;;;;;;;27.71;43.76;100218.00;5026911;28;20356;-60
2022/08/15 03:14:25;;;;;;;5.90;5.05;;;;;;;27.70;43.76;100208.13;5025170;28;20025;-60
2022/08/15 03:16:50;;;;;;;5.43;4.93;;;;;;;27.69;43.72;100201.84;5026102;28;20041;-60
2022/08/15 03:19:19;;;;;;;6.30;5.70;;;;;;;27.69;43.74;100210.03;5025908;28;20037;-60
2022/08/15 03:21:49;;;;;;;6.25;5.65;;;;;;;27.68;43.81;100213.84;5008058;28;20033;-60
2022/08/15 03:24:15;;;;;;;5.90;5.40;;;;;;;27.68;43.84;100205.66;5025793;28;20025;-60
2022/08/15 03:26:46;;;;;;;5.93;5.43;;;;;;;27.67;43.99;100204.81;5026307;28;20396;-59
2022/08/15 03:29:16;;;;;;;5.88;5.22;;;;;;;27.67;44.04;100201.28;5025885;28;20097;-59
2022/08/15 03:31:43;;;;;;;5.95;5.25;;;;;;;27.67;43.75;100196.63;5026054;28;20022;-59
2022/08/15 03:34:09;;;;;;;6.03;5.45;;;;;;;27.67;43.80;100204.81;5025397;28;20048;-58
2022/08/15 03:36:36;;;;;;;6.32;5.15;;;;;;;27.63;44.19;100195.47;5025440;28;20029;-60
2022/08/15 03:39:03;;;;;;;5.45;4.95;;;;;;;27.65;43.91;100197.94;5025722;28;20033;-60
2022/08/15 03:41:29;;;;;;;5.75;5.25;;;;;;;27.65;43.99;100196.06;5025751;28;20029;-59
2022/08/15 03:43:54;;;;;;;5.85;5.10;;;;;;;27.64;43.65;100186.19;5025242;28;20042;-59
2022/08/15 03:46:21;;;;;;;5.65;4.80;;;;;;;27.62;44.25;100182.06;5025905;28;20041;-60
2022/08/15 03:48:52;;;;;;;6.40;5.60;;;;;;;27.64;44.23;100179.91;5025652;28;20025;-59
2022/08/15 03:51:20;;;;;;;5.30;4.80;;;;;;;27.62;43.80;100182.06;5025120;28;20056;-59
2022/08/15 03:53:50;;;;;;;5.85;5.18;;;;;;;27.62;43.77;100182.88;5025429;28;20049;-60
2022/08/15 03:56:21;;;;;;;5.18;4.72;;;;;;;27.60;44.05;100185.03;5025830;28;20061;-59
2022/08/15 03:58:48;;;;;;;6.03;5.43;;;;;;;27.60;43.93;100190.47;5025340;28;20103;-59
2022/08/15 04:01:17;;;;;;;5.75;5.25;;;;;;;27.60;43.75;100179.56;5025839;28;20022;-60
2022/08/15 04:03:44;;;;;;;6.55;5.28;;;;;;;27.60;43.91;100184.19;5025021;28;20038;-60
2022/08/15 04:06:10;;;;;;;8.02;5.35;;;;;;;27.59;43.84;100188.81;5024901;28;20442;-60
2022/08/15 04:08:36;;;;;;;5.65;5.13;;;;;;;27.59;43.74;100188.00;5025464;28;20026;-59
2022/08/15 04:11:03;;;;;;;4.88;4.47;;;;;;;27.58;43.73;100184.44;5036411;28;20020;-59
2022/08/15 04:13:29;;;;;;;5.60;5.10;;;;;;;27.51;43.84;100174.75;5044839;28;20463;-59
2022/08/15 04:15:56;;;;;;;6.82;4.95;;;;;;;27.57;43.81;100196.44;5044925;28;20033;-60
2022/08/15 04:18:24;;;;;;;5.65;4.78;;;;;;;27.55;43.99;100203.22;5045045;28;20028;-60
2022/08/15 04:20:50;;;;;;;5.23;4.73;;;;;;;27.56;43.86;100221.25;5044363;28;20589;-60
2022/08/15 04:23:15;;;;;;;5.88;5.30;;;;;;;27.54;43.89;100215.22;5045000;28;20266;-60
2022/08/15 04:25:42;;;;;;;6.45;5.80;;;;;;;27.52;43.71;100212.72;5045909;28;20025;-60
2022/08/15 04:28:08;;;;;;;4.95;4.55;;;;;;;27.55;43.54;100206.78;5048983;28;20036;-59
2022/08/15 04:30:37;;;;;;;5.93;5.35;;;;;;;27.54;43.64;100216.03;5049021;28;20027;-59
2022/08/15 04:33:21;;;;;;;5.80;5.18;;;;;;;27.49;43.43;100215.13;5048832;28;20053;-60
2022/08/15 04:35:50;;;;;;;5.65;4.38;;;;;;;27.51;43.41;100216.53;5048161;28;20124;-59
2022/08/15 04:38:15;;;;;;;5.53;4.80;;;;;;;27.51;43.59;100212.97;5049086;28;20030;-60
2022/08/15 04:40:42;;;;;;;5.95;4.82;;;;;;;27.50;43.46;100216.78;5048925;28;20029;-60
2022/08/15 04:43:07;;;;;;;6.10;5.50;;;;;;;27.50;43.49;100228.53;5048714;28;20483;-59
2022/08/15 04:45:34;;;;;;;5.22;4.75;;;;;;;27.49;43.51;100215.94;5048445;28;20025;-60
2022/08/15 04:48:03;;;;;;;5.50;4.95;;;;;;;27.49;43.61;100213.22;5048802;28;20345;-59
2022/08/15 04:50:34;;;;;;;5.90;5.40;;;;;;;27.45;43.24;100214.78;5047962;28;20097;-60
2022/08/15 04:53:00;;;;;;;5.85;5.28;;;;;;;27.48;43.21;100217.00;5048450;28;20041;-61
2022/08/15 04:55:26;;;;;;;5.50;4.85;;;;;;;27.47;43.14;100212.63;5048412;28;20028;-60
2022/08/15 04:57:53;;;;;;;5.70;5.10;;;;;;;27.47;43.51;100211.78;5048494;28;20105;-59
2022/08/15 05:00:22;;;;;;;5.68;4.68;;;;;;;27.46;43.18;100208.22;5048418;28;20029;-60
2022/08/15 05:03:12;;;;;;;5.78;5.28;;;;;;;27.46;43.46;100205.50;5048196;28;20037;-60
2022/08/15 05:05:41;;;;;;;5.70;5.10;;;;;;;27.47;43.68;100214.53;5035181;28;20051;-60
2022/08/15 05:08:07;;;;;;;5.85;5.25;;;;;;;27.46;43.63;100210.13;5028095;28;20052;-59
2022/08/15 05:10:33;;;;;;;7.20;5.72;;;;;;;27.46;43.54;100201.94;5035360;28;20047;-59
2022/08/15 05:13:08;;;;;;;5.97;5.47;;;;;;;27.45;43.25;100197.56;5047833;28;20030;-59
2022/08/15 05:15:33;;;;;;;5.65;5.15;;;;;;;27.44;43.63;100199.44;5047931;28;20025;-59
2022/08/15 05:17:58;;;;;;;5.50;4.90;;;;;;;27.44;43.17;100191.25;5047914;28;20032;-61
2022/08/15 05:20:24;;;;;;;5.93;5.32;;;;;;;27.44;43.74;100187.69;5047339;28;20093;-60
2022/08/15 05:22:59;;;;;;;5.57;4.97;;;;;;;27.43;43.27;100192.31;5048187;28;20021;-59
2022/08/15 05:25:24;;;;;;;5.40;4.90;;;;;;;27.41;43.38;100189.03;5047831;28;20025;-58
2022/08/15 05:27:51;;;;;;;6.10;5.28;;;;;;;27.39;43.70;100186.53;5047786;28;20071;-59
2022/08/15 05:30:17;;;;;;;6.22;4.85;;;;;;;27.42;43.51;100201.59;5047973;28;20021;-59
2022/08/15 05:32:43;;;;;;;5.65;5.15;;;;;;;27.38;43.71;100187.59;5047786;28;20488;-60
2022/08/15 05:35:08;;;;;;;5.22;4.78;;;;;;;27.40;43.49;100190.94;5047140;28;20026;-59
2022/08/15 05:37:34;;;;;;;5.65;5.15;;;;;;;27.40;43.78;100184.66;5046668;28;20730;-60
2022/08/15 05:39:59;;;;;;;6.05;4.97;;;;;;;27.38;43.68;100187.59;5047506;28;20022;-59
2022/08/15 05:42:40;;;;;;;6.22;5.63;;;;;;;27.40;43.97;100193.66;5047455;28;20030;-59
2022/08/15 05:45:33;;;;;;;5.93;5.10;;;;;;;27.38;43.98;100201.25;5029537;28;20083;-58
2022/08/15 05:48:24;;;;;;;5.80;5.25;;;;;;;27.38;44.13;100198.53;5047378;28;20061;-59
2022/08/15 05:50:52;;;;;;;5.95;5.35;;;;;;;27.34;44.20;100197.34;5046984;28;20051;-61
2022/08/15 05:53:29;;;;;;;5.20;4.72;;;;;;;27.38;43.84;100203.16;5029298;28;20406;-59
2022/08/15 05:56:02;;;;;;;6.00;5.45;;;;;;;27.38;44.27;100212.16;5029743;28;20033;-59
2022/08/15 05:58:29;;;;;;;5.47;4.90;;;;;;;27.37;44.12;100210.53;5029342;28;20041;-59
2022/08/15 06:01:02;;;;;;;7.18;5.43;;;;;;;27.34;43.97;100205.53;5047363;28;20029;-60
2022/08/15 06:03:28;;;;;;;5.97;4.90;;;;;;;27.38;44.29;100220.34;5046682;28;20104;-60
2022/08/15 06:05:59;;;;;;;5.65;5.15;;;;;;;27.38;44.12;100220.34;5028888;28;20390;-59
2022/08/15 06:08:31;;;;;;;5.82;5.22;;;;;;;27.39;44.24;100213.00;5047102;28;20029;-59
2022/08/15 06:11:08;;;;;;;8.23;5.72;;;;;;;27.39;44.03;100213.00;5036367;28;20044;-59
2022/08/15 06:13:38;;;;;;;5.55;5.05;;;;;;;27.39;44.23;100223.91;5009368;28;20034;-60
2022/08/15 06:16:16;;;;;;;6.40;5.80;;;;;;;27.37;44.14;100212.41;5027118;28;20029;-58
2022/08/15 06:18:41;;;;;;;6.18;5.57;;;;;;;27.38;44.10;100216.81;5010108;28;20090;-59
2022/08/15 06:21:30;;;;;;;5.65;5.15;;;;;;;27.39;43.94;100215.72;5009097;28;20034;-59
2022/08/15 06:24:36;;;;;;;6.35;5.75;;;;;;;27.40;44.02;100222.88;5026715;28;20037;-60
2022/08/15 06:27:16;;;;;;;6.30;5.70;;;;;;;27.39;43.88;100216.56;4981544;28;20042;-59
2022/08/15 06:29:59;;;;;;;5.97;5.47;;;;;;;27.39;44.00;100222.00;5026673;28;20018;-60
2022/08/15 06:32:37;;;;;;;8.50;5.75;;;;;;;27.39;43.71;100226.66;5026707;28;20029;-59
2022/08/15 06:35:24;;;;;;;6.28;5.60;;;;;;;27.40;44.11;100231.06;5008537;28;20121;-60
2022/08/15 06:38:04;;;;;;;5.47;4.97;;;;;;;27.41;43.79;100238.16;5026833;28;20030;-60
2022/08/15 06:40:47;;;;;;;5.82;5.28;;;;;;;27.39;44.06;100238.38;5026518;28;20052;-60
2022/08/15 06:43:13;;;;;;;6.90;6.28;;;;;;;27.40;44.24;100240.06;5026398;28;20018;-60
2022/08/15 06:45:42;;;;;;;6.70;6.00;;;;;;;27.34;44.27;100230.09;5008977;28;20030;-61
2022/08/15 06:48:10;;;;;;;5.88;5.35;;;;;;;27.41;44.02;100240.91;5008794;28;20063;-59
2022/08/15 06:50:45;;;;;;;5.72;5.22;;;;;;;27.31;43.93;100218.81;5008359;28;20030;-59
2022/08/15 06:53:25;;;;;;;6.85;5.68;;;;;;;27.43;43.76;100233.28;5008627;28;20050;-60
2022/08/15 06:56:17;;;;;;;6.15;5.55;;;;;;;27.42;43.94;100237.91;5008809;28;20029;-60
2022/08/15 06:59:16;;;;;;;6.38;5.78;;;;;;;27.41;44.07;100230.81;5026115;28;20053;-60
2022/08/15 07:02:04;;;;;;;6.90;5.93;;;;;;;27.42;44.02;100237.91;5025983;28;20022;-60
2022/08/15 07:05:07;;;;;;;6.25;5.65;;;;;;;27.42;44.05;100235.19;5008327;28;20032;-59
2022/08/15 07:07:42;;;;;;;6.07;5.47;;;;;;;27.42;43.99;100240.66;5026298;28;20080;-59
2022/08/15 07:10:20;;;;;;;6.40;5.78;;;;;;;27.42;43.84;100242.56;5029751;28;20018;-60
2022/08/15 07:13:12;;;;;;;6.15;5.53;;;;;;;27.45;43.93;100235.78;5028078;28;20032;-58
2022/08/15 07:15:46;;;;;;;7.00;5.93;;;;;;;27.43;44.11;100236.00;5045712;28;20501;-59
2022/08/15 07:18:19;;;;;;;8.05;6.53;;;;;;;27.44;43.95;100232.19;5045694;28;20089;-60
2022/08/15 07:20:44;;;;;;;6.38;5.72;;;;;;;27.45;43.74;100233.06;5045131;28;20079;-60
2022/08/15 07:23:19;;;;;;;6.32;5.72;;;;;;;27.33;43.85;100211.25;5045672;28;20025;-59
2022/08/15 07:25:47;;;;;;;6.70;6.05;;;;;;;27.45;44.04;100222.97;5045476;28;20025;-60
2022/08/15 07:28:16;;;;;;;6.90;6.20;;;;;;;27.47;44.03;100233.63;5045397;28;20095;-59
2022/08/15 07:31:19;;;;;;;6.80;5.97;;;;;;;27.46;43.73;100230.06;5027921;28;20025;-60
2022/08/15 07:33:51;;;;;;;6.40;5.80;;;;;;;27.35;43.79;100217.28;5045228;28;20055;-59
2022/08/15 07:36:26;;;;;;;6.57;5.88;;;;;;;27.46;44.13;100232.81;5044816;28;20021;-60
2022/08/15 07:38:53;;;;;;;6.53;5.93;;;;;;;27.47;44.25;100230.91;5045402;28;20025;-59
2022/08/15 07:41:22;;;;;;;6.15;5.55;;;;;;;27.47;44.00;100222.72;5045376;28;20168;-59
2022/08/15 07:43:59;;;;;;;6.63;5.97;;;;;;;27.47;43.94;100230.91;5044894;28;20052;-59
2022/08/15 07:46:39;;;;;;;6.50;5.90;;;;;;;27.48;44.05;100238.00;5045421;28;20025;-60
2022/08/15 07:49:21;;;;;;;7.15;6.35;;;;;;;27.47;44.05;100237.19;5045119;28;20032;-59
2022/08/15 07:51:58;;;;;;;6.80;6.20;;;;;;;27.47;44.37;100245.38;5044653;28;20101;-59
2022/08/15 07:54:43;;;;;;;7.03;6.33;;;;;;;27.47;44.37;100250.84;5045300;28;20048;-60
2022/08/15 07:57:26;;;;;;;7.20;6.50;;;;;;;27.35;44.44;100226.28;5045523;28;20246;-60
2022/08/15 08:00:08;;;;;;;6.82;6.22;;;;;;;27.49;44.50;100245.16;5044694;28;20013;-60
2022/08/15 08:02:43;;;;;;;7.55;6.20;;;;;;;27.48;44.37;100244.31;5045172;28;20054;-61
2022/08/15 08:05:10;;;;;;;7.20;6.50;;;;;;;27.48;44.33;100238.00;5026637;28;20025;-59
2022/08/15 08:07:40;;;;;;;7.20;6.57;;;;;;;27.46;44.59;100241.00;5027433;28;20386;-59
2022/08/15 08:10:21;;;;;;;7.18;6.18;;;;;;;27.47;44.56;100245.38;5023815;28;20022;-60
2022/08/15 08:13:28;;;;;;;6.68;5.93;;;;;;;27.49;44.37;100245.16;4991268;28;20064;-60
2022/08/15 08:16:16;;;;;;;6.43;5.88;;;;;;;27.49;44.50;100256.06;5007513;28;20029;-60
2022/08/15 08:18:57;;;;;;;6.63;6.03;;;;;;;27.47;44.49;100264.50;5007549;28;20052;-60
2022/08/15 08:21:30;;;;;;;8.00;6.13;;;;;;;27.48;44.64;100262.59;5024795;28;20032;-60
2022/08/15 08:24:01;;;;;;;6.63;6.00;;;;;;;27.47;44.56;100259.03;5007538;28;20026;-60
2022/08/15 08:26:40;;;;;;;6.47;5.82;;;;;;;27.50;44.51;100263.19;5007495;28;20045;-60
2022/08/15 08:29:33;;;;;;;6.10;5.50;;;;;;;27.51;44.37;100267.56;5007463;28;20459;-60
2022/08/15 08:32:26;;;;;;;6.20;5.60;;;;;;;27.47;44.16;100267.22;4991777;28;20045;-60
2022/08/15 08:35:16;;;;;;;5.55;4.97;;;;;;;27.51;44.08;100256.66;5024397;28;20038;-58
2022/08/15 08:38:09;;;;;;;5.68;5.18;;;;;;;27.51;44.04;100262.13;5028625;28;20032;-59
2022/08/15 08:43:56;;;;;;;5.13;4.63;;;;;;;27.51;43.95;100284.78;5012693;28;20033;-60
2022/08/15 08:46:24;;;;;;;5.40;4.90;;;;;;;27.51;44.06;100283.97;5024959;28;20044;-60
2022/08/15 08:49:27;;;;;;;5.68;5.07;;;;;;;27.52;43.99;100289.16;5024822;28;20383;-61
2022/08/15 08:52:04;;;;;;;5.30;4.70;;;;;;;27.39;43.71;100254.78;5003532;28;20075;-61
2022/08/15 08:54:57;;;;;;;5.10;4.60;;;;;;;27.54;43.66;100280.75;5004962;28;20033;-60
2022/08/15 08:57:25;;;;;;;5.30;4.80;;;;;;;27.55;43.99;100276.94;5004153;28;20023;-60
2022/08/15 09:00:00;;;;;;;4.97;4.57;;;;;;;27.55;44.12;100274.22;5003829;28;20077;-60
2022/08/15 09:02:56;;;;;;;6.70;5.18;;;;;;;27.55;44.31;100277.78;5005162;28;20034;-60
2022/08/15 09:05:26;;;;;;;5.47;4.25;;;;;;;27.55;44.27;100283.22;4983742;28;20054;-60
2022/08/15 09:07:59;;;;;;;5.05;4.40;;;;;;;27.54;44.55;100276.13;5004077;28;20026;-60
2022/08/15 09:10:34;;;;;;;4.68;4.20;;;;;;;27.54;44.43;100284.31;5009909;28;20028;-61
2022/08/15 09:15:47;;;;;;;4.47;4.07;;;;;;;27.58;45.04;100280.03;5026974;28;20029;-59
2022/08/15 09:18:27;;;;;;;5.28;3.83;;;;;;;27.59;44.43;100280.84;5027151;28;20111;-60
2022/08/15 09:20:52;;;;;;;4.35;3.95;;;;;;;27.58;44.72;100288.22;5026532;28;20030;-60
2022/08/15 09:23:18;;;;;;;4.13;3.72;;;;;;;27.55;44.56;100280.50;5028343;28;20117;-60
2022/08/15 09:26:06;;;;;;;4.40;3.67;;;;;;;27.59;44.55;100297.25;5026818;28;20022;-60
2022/08/15 09:28:35;;;;;;;5.25;3.80;;;;;;;27.58;44.74;100296.41;5028287;28;20030;-59
2022/08/15 09:31:10;;;;;;;4.75;3.70;;;;;;;27.59;44.43;100297.25;5028080;28;20030;-59
2022/08/15 09:33:57;;;;;;;4.03;3.60;;;;;;;27.58;45.00;100301.88;5026825;28;20185;-60
2022/08/15 09:36:39;;;;;;;4.22;3.47;;;;;;;27.59;44.85;100308.16;5027442;28;20080;-60
2022/08/15 09:39:34;;;;;;;3.80;3.40;;;;;;;27.58;44.65;100301.03;5026660;28;20014;-60
2022/08/15 09:42:06;;;;;;;3.90;3.53;;;;;;;27.57;44.79;100300.22;5025714;28;20037;-60
2022/08/15 09:45:04;;;;;;;4.45;3.95;;;;;;;27.57;44.86;100305.69;5027554;28;20040;-60
2022/08/15 09:47:51;;;;;;;3.45;3.15;;;;;;;27.57;44.93;100310.28;5027780;28;20030;-60
2022/08/15 09:50:34;;;;;;;3.88;3.47;;;;;;;27.56;44.52;100306.72;5027131;28;20040;-59
2022/08/15 09:53:14;;;;;;;3.53;3.22;;;;;;;27.57;44.68;100315.75;5044205;28;20064;-60
2022/08/15 09:55:44;;;;;;;3.50;3.20;;;;;;;27.37;44.53;100289.69;5013010;28;20418;-59
2022/08/15 09:58:20;;;;;;;4.03;3.08;;;;;;;27.55;44.81;100313.25;5047314;28;20489;-60
2022/08/15 10:01:19;;;;;;;3.75;3.30;;;;;;;27.57;44.81;100315.75;5047138;28;20036;-60
2022/08/15 10:03:44;;;;;;;3.53;3.22;;;;;;;27.56;44.82;100319.56;5046808;28;20040;-60
2022/08/15 10:06:23;;;;;;;4.93;3.35;;;;;;;27.55;44.83;100318.72;5046736;28;20030;-60
2022/08/15 10:08:55;;;;;;;3.50;3.20;;;;;;;27.56;45.05;100314.09;5047253;28;20025;-60
2022/08/15 10:11:30;;;;;;;3.03;2.72;;;;;;;27.56;44.54;100311.38;5033210;28;20022;-60
2022/08/15 10:14:05;;;;;;;3.25;2.95;;;;;;;27.57;45.00;100315.75;5026807;28;20034;-60
2022/08/15 10:16:35;;;;;;;3.55;3.25;;;;;;;27.56;44.87;100320.38;5027201;28;20029;-60
2022/08/15 10:19:04;;;;;;;3.20;2.90;;;;;;;27.57;44.86;100318.47;5027085;28;20087;-60
2022/08/15 10:21:37;;;;;;;3.20;2.90;;;;;;;27.58;45.03;100318.25;5026586;28;20057;-60
2022/08/15 10:24:07;;;;;;;3.33;2.92;;;;;;;27.57;45.09;100316.59;5009218;28;20058;-60
2022/08/15 10:26:37;;;;;;;3.88;3.13;;;;;;;27.57;44.64;100319.34;5009365;28;20041;-60
2022/08/15 10:29:04;;;;;;;3.40;3.10;;;;;;;27.57;44.74;100319.34;5026843;28;20022;-60
2022/08/15 10:31:40;;;;;;;3.53;3.22;;;;;;;27.53;44.90;100303.69;5026812;28;20022;-60
2022/08/15 10:34:17;;;;;;;3.35;2.90;;;;;;;27.57;44.88;100315.75;5009055;28;20113;-59
2022/08/15 10:37:04;;;;;;;3.10;2.80;;;;;;;27.58;44.67;100317.44;5008661;28;20022;-60
2022/08/15 10:39:44;;;;;;;3.17;2.87;;;;;;;27.55;44.77;100313.25;5026575;28;20022;-60
2022/08/15 10:42:29;;;;;;;4.53;3.05;;;;;;;27.58;44.57;100315.53;5009132;28;20025;-60
2022/08/15 10:45:28;;;;;;;3.28;2.95;;;;;;;27.58;44.57;100322.91;5026318;28;20339;-60
2022/08/15 10:48:05;;;;;;;3.10;2.80;;;;;;;27.58;44.43;100328.34;5009235;28;20124;-60
2022/08/15 10:50:42;;;;;;;3.55;3.08;;;;;;;27.57;44.52;100313.00;5025972;28;20033;-60
2022/08/15 10:53:23;;;;;;;3.17;2.85;;;;;;;27.58;44.44;100314.69;5026413;28;20053;-59
2022/08/15 10:55:48;;;;;;;2.58;2.38;;;;;;;27.57;44.26;100321.22;5026182;28;20041;-60
2022/08/15 10:58:24;;;;;;;3.05;2.72;;;;;;;27.58;44.52;100317.44;5026350;28;20026;-60
2022/08/15 11:01:03;;;;;;;2.72;2.50;;;;;;;27.58;44.71;100320.16;5026231;28;20041;-60
2022/08/15 11:03:53;;;;;;;2.80;2.55;;;;;;;27.58;44.59;100325.63;5008562;28;20029;-61
2022/08/15 11:06:21;;;;;;;3.17;2.72;;;;;;;27.57;44.36;100327.53;5025641;28;20049;-60
2022/08/15 11:08:53;;;;;;;2.75;2.55;;;;;;;27.58;44.72;100321.00;5026446;28;20030;-60
2022/08/15 11:11:21;;;;;;;5.30;2.72;;;;;;;27.58;44.45;100329.19;5039549;28;20108;-60
2022/08/15 11:13:56;;;;;;;3.15;2.70;;;;;;;27.51;44.68;100319.44;5027886;28;20033;-59
2022/08/15 11:16:29;;;;;;;4.38;2.55;;;;;;;27.58;44.32;100325.63;5045736;28;20033;-60
2022/08/15 11:18:56;;;;;;;2.53;2.33;;;;;;;27.57;44.32;100324.78;5028120;28;20100;-60
2022/08/15 11:21:42;;;;;;;3.65;2.97;;;;;;;27.59;44.57;100330.00;5045264;28;20026;-60
2022/08/15 11:24:09;;;;;;;5.18;2.75;;;;;;;27.58;44.10;100323.72;5028373;28;20036;-59
2022/08/15 11:26:38;;;;;;;2.63;2.35;;;;;;;27.58;44.57;100325.63;5045418;28;20040;-60
2022/08/15 11:29:14;;;;;;;3.88;2.65;;;;;;;27.57;44.13;100324.78;5045578;28;20063;-61
2022/08/15 11:31:56;;;;;;;3.45;2.50;;;;;;;27.58;44.16;100336.53;5045812;28;20026;-60
2022/08/15 11:34:32;;;;;;;2.65;2.42;;;;;;;27.57;44.05;100333.00;5027460;28;20045;-60
2022/08/15 11:37:04;;;;;;;3.35;2.42;;;;;;;27.45;44.57;100321.25;5026508;28;20017;-60
2022/08/15 11:39:31;;;;;;;2.97;2.58;;;;;;;27.47;44.39;100318.28;5027566;28;20495;-60
2022/08/15 11:42:04;;;;;;;2.80;2.40;;;;;;;27.57;44.15;100334.88;5045088;28;20056;-60
2022/08/15 11:44:52;;;;;;;2.55;2.30;;;;;;;27.57;44.36;100333.00;5027444;28;20025;-60
2022/08/15 11:47:18;;;;;;;3.50;2.90;;;;;;;27.57;44.63;100333.00;5027673;28;20025;-60
2022/08/15 11:49:47;;;;;;;3.15;2.58;;;;;;;27.49;44.31;100321.59;5027448;28;20025;-60
2022/08/15 11:52:13;;;;;;;3.22;2.20;;;;;;;27.59;44.37;100332.75;5026853;28;20042;-59
2022/08/15 11:54:38;;;;;;;2.28;2.08;;;;;;;27.59;44.03;100333.56;5045178;28;20059;-60
2022/08/15 11:57:06;;;;;;;3.35;2.55;;;;;;;27.59;44.40;100328.09;5045428;28;20017;-60